Time;durP1;ratioP1;P1;durP2;ratioP2;P2;SDS_P1;SDS_P2;PMS_P1;PMS_P2;Temp;Humidity;BMP_temperature;BMP_pressure;BME280_temperature;BME280_humidity;BME280_pressure;Samples;Min_cycle;Max_cycle;Signal;HPM_P1;HPM_P2
2022/12/20 00:01:34;;;;;;;2.65;1.70;;;;;;;9.87;87.42;101326.97;4930326;28;20103;-69
2022/12/20 00:04:06;;;;;;;3.63;1.60;;;;;;;9.91;87.27;101318.13;4928121;28;20083;-69
2022/12/20 00:06:35;;;;;;;5.15;2.10;;;;;;;9.93;87.09;101315.44;4931745;28;20040;-69
2022/12/20 00:09:06;;;;;;;2.97;1.60;;;;;;;9.97;87.11;101321.50;4930876;29;20051;-69
2022/12/20 00:11:37;;;;;;;2.80;1.60;;;;;;;9.94;86.83;101315.41;4932091;28;20044;-68
2022/12/20 00:14:04;;;;;;;3.08;1.85;;;;;;;9.95;86.39;101303.97;4930603;28;20108;-68
2022/12/20 00:16:31;;;;;;;4.30;1.80;;;;;;;9.92;86.15;101306.66;4929775;28;20494;-68
2022/12/20 00:19:02;;;;;;;3.95;1.98;;;;;;;9.90;85.74;101313.75;4927495;28;20463;-68
2022/12/20 00:21:32;;;;;;;3.15;1.98;;;;;;;9.90;85.79;101320.75;4931369;29;20040;-68
2022/12/20 00:23:59;;;;;;;3.35;1.85;;;;;;;9.87;85.65;101313.78;4931830;29;20047;-68
2022/12/20 00:26:30;;;;;;;5.10;1.92;;;;;;;9.86;85.96;101308.56;4932489;29;20048;-68
2022/12/20 00:28:59;;;;;;;6.10;1.92;;;;;;;9.85;85.82;101315.59;4930156;29;20061;-68
2022/12/20 00:31:29;;;;;;;4.68;1.70;;;;;;;9.85;85.96;101310.31;4937327;28;20059;-68
2022/12/20 00:33:58;;;;;;;4.82;1.80;;;;;;;9.85;85.65;101312.94;4943729;28;20044;-67
2022/12/20 00:36:28;;;;;;;3.75;2.00;;;;;;;9.89;85.85;101313.75;4932860;29;20044;-69
2022/12/20 00:38:59;;;;;;;2.30;1.45;;;;;;;9.91;85.71;101315.47;4930452;29;20048;-69
2022/12/20 00:41:30;;;;;;;3.60;1.77;;;;;;;9.92;85.83;101301.38;4931631;28;20943;-69
2022/12/20 00:43:57;;;;;;;3.55;1.77;;;;;;;9.94;85.41;101293.47;4931416;29;20466;-69
2022/12/20 00:46:24;;;;;;;4.15;1.80;;;;;;;9.94;85.45;101296.09;4925228;29;20091;-69
2022/12/20 00:48:54;;;;;;;3.13;1.70;;;;;;;9.93;85.55;101305.75;4930232;28;20048;-70
2022/12/20 00:51:28;;;;;;;3.88;1.60;;;;;;;9.94;85.30;101299.59;4945719;28;20056;-70
2022/12/20 00:53:55;;;;;;;5.25;1.75;;;;;;;9.96;85.43;101304.84;4933488;29;20043;-70
2022/12/20 00:56:24;;;;;;;2.47;1.80;;;;;;;9.97;85.13;101295.16;4933994;29;20117;-70
2022/12/20 00:58:58;;;;;;;3.35;1.70;;;;;;;9.99;84.89;101291.59;4917526;29;20518;-69
2022/12/20 01:01:31;;;;;;;2.35;1.90;;;;;;;9.99;84.96;101275.78;4936137;28;20056;-69
2022/12/20 01:03:59;;;;;;;3.55;1.88;;;;;;;10.00;85.16;101289.84;4933446;28;20154;-68
2022/12/20 01:06:27;;;;;;;3.58;1.77;;;;;;;10.02;85.08;101278.38;4929237;28;20052;-67
2022/12/20 01:08:55;;;;;;;4.22;2.08;;;;;;;10.03;85.09;101279.22;4934698;29;20051;-68
2022/12/20 01:11:29;;;;;;;3.40;1.83;;;;;;;10.05;84.84;101272.16;4933668;28;20052;-67
2022/12/20 01:14:00;;;;;;;5.35;2.00;;;;;;;10.05;84.95;101285.34;4934906;29;20056;-69
2022/12/20 01:16:38;;;;;;;3.95;1.95;;;;;;;10.06;84.47;101284.44;4934053;28;20160;-69
2022/12/20 01:19:08;;;;;;;3.08;1.70;;;;;;;10.05;84.91;101282.69;4930932;29;20044;-69
2022/12/20 01:21:37;;;;;;;4.75;2.20;;;;;;;10.05;84.95;101283.59;4935456;29;20044;-69
2022/12/20 01:24:04;;;;;;;4.22;1.40;;;;;;;10.08;85.07;101277.38;4933044;28;20142;-70
2022/12/20 01:26:31;;;;;;;3.00;1.60;;;;;;;10.09;84.90;101277.34;4925420;28;20063;-70
2022/12/20 01:28:59;;;;;;;4.22;1.60;;;;;;;10.12;84.81;101279.06;4932979;28;20107;-70
2022/12/20 01:31:29;;;;;;;2.90;1.58;;;;;;;10.16;84.40;101290.41;4934598;29;20044;-70
2022/12/20 01:33:57;;;;;;;2.17;1.40;;;;;;;10.18;84.46;101286.81;4933032;28;20044;-70
2022/12/20 01:36:30;;;;;;;3.30;1.55;;;;;;;10.23;84.71;101295.47;4931396;28;20506;-70
2022/12/20 01:39:05;;;;;;;3.50;1.67;;;;;;;10.22;84.64;101293.78;4941051;28;20589;-70
2022/12/20 01:41:35;;;;;;;4.10;1.75;;;;;;;10.24;84.77;101297.22;4933610;29;20040;-70
2022/12/20 01:44:24;;;;;;;3.60;1.77;;;;;;;10.25;84.61;101293.69;4931349;29;20127;-70
2022/12/20 01:46:55;;;;;;;4.15;1.80;;;;;;;10.28;84.52;101287.47;4927407;28;20092;-69
2022/12/20 01:49:24;;;;;;;4.10;1.90;;;;;;;10.32;84.64;101285.66;4932722;29;20141;-70
2022/12/20 01:52:15;;;;;;;1.85;1.50;;;;;;;10.33;84.52;101282.97;4935446;29;20048;-70
2022/12/20 01:55:03;;;;;;;3.63;1.83;;;;;;;10.33;84.77;101284.72;4942730;28;20048;-70
2022/12/20 01:57:57;;;;;;;3.20;1.80;;;;;;;10.28;85.14;101295.38;4934378;28;20040;-70
2022/12/20 02:00:24;;;;;;;4.65;2.05;;;;;;;10.20;85.53;101289.41;4946661;28;20506;-71
2022/12/20 02:02:53;;;;;;;2.90;1.90;;;;;;;10.16;85.96;101300.94;4932439;29;20037;-69
2022/12/20 02:05:22;;;;;;;4.88;2.10;;;;;;;10.14;86.31;101294.81;4933942;28;20414;-68
2022/12/20 02:07:55;;;;;;;3.83;2.13;;;;;;;10.11;86.60;101293.13;4941854;28;20072;-70
2022/12/20 02:10:33;;;;;;;3.97;2.10;;;;;;;10.07;86.91;101288.81;4945492;28;20052;-69
2022/12/20 02:13:18;;;;;;;4.00;2.45;;;;;;;10.02;87.33;101273.09;4935860;28;20099;-70
2022/12/20 02:15:55;;;;;;;3.47;2.20;;;;;;;9.95;87.53;101282.91;4933704;29;20052;-70
2022/12/20 02:18:30;;;;;;;3.97;2.33;;;;;;;9.89;87.95;101272.50;4933546;28;20044;-69
2022/12/20 02:21:41;;;;;;;4.60;2.60;;;;;;;9.85;88.54;101255.00;4932856;29;20091;-69
2022/12/20 02:24:43;;;;;;;4.20;2.50;;;;;;;9.79;88.92;101252.53;4915762;29;20131;-69
2022/12/20 02:27:32;;;;;;;5.20;2.30;;;;;;;9.74;89.43;101244.72;4929276;28;20044;-69
2022/12/20 02:30:20;;;;;;;4.05;2.30;;;;;;;9.71;89.86;101242.13;4932931;29;20055;-69
2022/12/20 02:33:02;;;;;;;3.92;2.38;;;;;;;9.68;90.07;101250.09;4931084;28;20055;-69
2022/12/20 02:35:34;;;;;;;5.32;2.65;;;;;;;9.62;90.37;101252.84;4920505;29;20507;-69
2022/12/20 02:38:27;;;;;;;3.05;2.33;;;;;;;9.58;90.83;101249.41;4914908;29;20052;-69
2022/12/20 02:41:14;;;;;;;6.00;2.70;;;;;;;9.55;91.04;101245.97;4930336;29;20123;-69
2022/12/20 02:46:35;;;;;;;4.22;2.40;;;;;;;9.45;91.59;101229.50;4930947;29;20131;-68
2022/12/20 02:49:13;;;;;;;4.72;2.70;;;;;;;9.41;91.93;101223.44;4933077;29;20107;-68
2022/12/20 02:51:44;;;;;;;3.40;2.45;;;;;;;9.37;92.53;101216.47;4922762;29;20514;-68
2022/12/20 02:54:13;;;;;;;4.75;2.47;;;;;;;9.36;92.72;101216.50;4931168;29;20066;-68
2022/12/20 02:57:06;;;;;;;5.63;2.90;;;;;;;9.33;92.98;101217.44;4933536;28;20072;-67
2022/12/20 02:59:47;;;;;;;6.47;2.50;;;;;;;9.32;93.14;101215.72;4915051;28;20044;-68
2022/12/20 03:02:15;;;;;;;4.80;2.60;;;;;;;9.30;93.28;101204.34;4932851;29;20036;-68
2022/12/20 03:04:43;;;;;;;6.20;3.05;;;;;;;9.29;93.47;101202.59;4916190;29;20052;-68
2022/12/20 03:07:13;;;;;;;7.30;2.90;;;;;;;9.32;93.77;101206.03;4915137;29;20076;-68
2022/12/20 03:09:43;;;;;;;4.07;2.65;;;;;;;9.34;93.85;101195.50;4914134;29;20048;-69
2022/12/20 03:12:14;;;;;;;4.25;2.80;;;;;;;9.35;93.75;101189.34;4932276;28;20049;-69
2022/12/20 03:14:42;;;;;;;6.20;2.53;;;;;;;9.36;93.69;101187.56;4915676;29;20039;-69
2022/12/20 03:17:11;;;;;;;4.43;2.50;;;;;;;9.38;93.58;101196.31;4931627;28;20524;-69
2022/12/20 03:19:38;;;;;;;5.05;2.42;;;;;;;9.41;93.62;101193.63;4915213;29;20051;-70
2022/12/20 03:22:06;;;;;;;4.22;2.30;;;;;;;9.40;93.53;101192.75;4932912;29;20490;-70
2022/12/20 03:24:33;;;;;;;4.18;2.20;;;;;;;9.42;93.25;101200.59;4916166;29;20457;-70
2022/12/20 03:27:05;;;;;;;5.45;2.58;;;;;;;9.43;93.28;101199.69;4915771;29;20088;-70
2022/12/20 03:29:32;;;;;;;3.92;2.28;;;;;;;9.42;93.04;101198.84;4933456;28;20052;-70
2022/12/20 03:31:59;;;;;;;4.03;2.45;;;;;;;9.41;93.01;101205.00;4899808;29;20048;-70
2022/12/20 03:34:26;;;;;;;5.93;2.67;;;;;;;9.40;92.89;101202.41;4901753;29;20510;-69
2022/12/20 03:36:53;;;;;;;4.15;2.63;;;;;;;9.41;92.83;101201.53;4929811;28;20773;-70
2022/12/20 03:39:21;;;;;;;3.60;2.20;;;;;;;9.44;92.86;101204.94;4916329;29;20883;-70
2022/12/20 03:41:51;;;;;;;2.90;2.45;;;;;;;9.46;92.79;101197.00;4933529;29;20522;-70
2022/12/20 03:44:18;;;;;;;5.13;2.30;;;;;;;9.48;92.66;101190.81;4918928;29;20061;-69
2022/12/20 03:46:45;;;;;;;2.95;2.03;;;;;;;9.52;92.63;101188.97;4932612;28;20135;-70
2022/12/20 03:49:12;;;;;;;3.25;2.00;;;;;;;9.58;92.45;101191.50;4935591;28;20044;-69
2022/12/20 03:51:45;;;;;;;3.53;2.03;;;;;;;9.63;92.30;101194.03;4915993;29;20518;-69
2022/12/20 03:54:13;;;;;;;4.55;2.20;;;;;;;9.67;92.14;101193.06;4930447;28;20044;-69
2022/12/20 03:56:56;;;;;;;3.72;2.03;;;;;;;9.70;91.79;101190.38;4915531;29;20559;-70
2022/12/20 03:59:24;;;;;;;2.10;1.70;;;;;;;9.74;91.67;101185.91;4932700;28;20119;-70
2022/12/20 04:01:53;;;;;;;3.70;2.00;;;;;;;9.80;91.57;101191.06;4916030;29;20127;-70
2022/12/20 04:04:20;;;;;;;8.00;2.00;;;;;;;9.83;91.45;101190.13;4911306;29;20131;-69
2022/12/20 04:06:47;;;;;;;6.88;1.88;;;;;;;9.87;91.21;101191.81;4914988;29;20048;-69
2022/12/20 04:09:15;;;;;;;3.97;1.98;;;;;;;9.90;91.29;101194.34;4915295;29;20065;-70
2022/12/20 04:11:47;;;;;;;4.35;2.05;;;;;;;9.93;91.15;101192.50;4915666;29;20150;-70
2022/12/20 04:14:15;;;;;;;5.32;2.13;;;;;;;9.95;91.06;101193.34;4925914;29;20052;-70
2022/12/20 04:16:43;;;;;;;2.58;1.83;;;;;;;10.01;90.95;101196.75;4910103;29;20408;-70
2022/12/20 04:19:11;;;;;;;6.32;2.10;;;;;;;10.06;90.87;101184.34;4920316;29;20537;-70
2022/12/20 04:21:44;;;;;;;3.50;1.87;;;;;;;10.12;90.77;101188.59;4928960;29;20062;-69
2022/12/20 04:24:12;;;;;;;3.70;2.35;;;;;;;10.15;90.63;101186.75;4930365;29;20247;-70
2022/12/20 04:26:44;;;;;;;3.00;1.67;;;;;;;10.20;90.60;101189.28;4915767;29;20123;-70
2022/12/20 04:29:12;;;;;;;3.33;1.70;;;;;;;10.23;90.50;101170.78;4915283;28;20063;-69
2022/12/20 04:31:42;;;;;;;3.55;1.67;;;;;;;10.30;89.80;101161.81;4925408;29;20047;-69
2022/12/20 04:34:09;;;;;;;5.68;2.00;;;;;;;10.32;89.86;101169.72;4926612;29;20044;-69
2022/12/20 04:36:37;;;;;;;2.80;1.60;;;;;;;10.33;89.94;101164.38;4915314;29;20040;-69
2022/12/20 04:39:09;;;;;;;3.22;1.75;;;;;;;10.34;89.65;101163.50;4915554;29;20130;-69
2022/12/20 04:42:10;;;;;;;3.17;1.77;;;;;;;10.36;89.69;101171.34;4914827;29;20545;-69
2022/12/20 04:44:37;;;;;;;4.72;2.00;;;;;;;10.39;89.61;101169.53;4914683;29;20071;-69
2022/12/20 04:47:05;;;;;;;3.97;1.80;;;;;;;10.43;89.50;101157.16;4930883;29;20044;-69
2022/12/20 04:49:33;;;;;;;4.53;1.80;;;;;;;10.45;89.40;101172.94;4914126;29;20071;-69
2022/12/20 04:53:46;;;;;;;3.22;1.88;;;;;;;10.48;88.77;101163.19;4914905;29;20052;-69
2022/12/20 04:54:48;;;;;;;3.92;1.90;;;;;;;10.50;89.02;101171.03;4906258;29;20128;-70
2022/12/20 04:57:24;;;;;;;4.43;2.00;;;;;;;10.51;88.97;101165.75;4914450;29;20040;-69
2022/12/20 04:59:51;;;;;;;3.83;1.90;;;;;;;10.51;89.13;101171.03;4925077;29;20052;-70
2022/12/20 05:02:18;;;;;;;2.90;1.80;;;;;;;10.51;88.97;101160.47;4924430;29;20104;-69
2022/12/20 05:04:50;;;;;;;3.25;1.83;;;;;;;10.52;88.89;101156.06;4928523;29;20048;-69
2022/12/20 05:07:18;;;;;;;3.78;1.70;;;;;;;10.53;88.85;101157.78;4928390;29;20044;-68
2022/12/20 05:09:53;;;;;;;6.57;2.17;;;;;;;10.53;88.92;101158.66;4922309;29;20047;-69
2022/12/20 05:12:20;;;;;;;2.75;1.80;;;;;;;10.54;88.84;101155.09;4931244;29;20569;-68
2022/12/20 05:14:47;;;;;;;4.10;2.03;;;;;;;10.56;88.64;101160.38;4929294;29;20048;-69
2022/12/20 05:17:18;;;;;;;3.28;1.85;;;;;;;10.57;88.68;101162.94;4921603;28;20048;-69
2022/12/20 05:19:48;;;;;;;3.45;1.90;;;;;;;10.60;88.66;101158.50;4929572;29;20140;-70
2022/12/20 05:28:02;;;;;;;2.58;1.80;;;;;;;10.59;88.77;101140.97;4913042;29;20857;-70
2022/12/20 05:30:33;;;;;;;4.13;2.05;;;;;;;10.59;89.00;101133.91;4915506;29;20135;-70
2022/12/20 05:33:01;;;;;;;4.15;2.17;;;;;;;10.61;89.04;101139.16;4916429;28;20115;-70
2022/12/20 05:35:29;;;;;;;5.18;2.15;;;;;;;10.61;89.06;101132.09;4938321;28;20092;-70
2022/12/20 05:38:03;;;;;;;4.28;2.05;;;;;;;10.63;89.09;101132.06;4915838;29;20047;-70
2022/12/20 05:40:31;;;;;;;4.35;2.00;;;;;;;10.64;89.02;101133.78;4936585;28;20074;-70
2022/12/20 05:42:59;;;;;;;3.08;1.90;;;;;;;10.64;89.22;101133.78;4917700;29;20048;-69
2022/12/20 05:45:50;;;;;;;1.98;1.55;;;;;;;10.64;89.18;101137.31;4917974;29;20037;-68
2022/12/20 05:48:23;;;;;;;4.90;2.00;;;;;;;10.65;89.21;101138.16;4913883;28;20111;-69
2022/12/20 05:50:52;;;;;;;5.35;2.05;;;;;;;10.69;89.43;101135.41;4914089;29;20056;-68
2022/12/20 05:53:22;;;;;;;5.13;2.00;;;;;;;10.74;89.03;101131.78;4931749;28;20075;-69
2022/12/20 05:55:53;;;;;;;3.08;1.83;;;;;;;10.78;88.95;101129.03;4939925;28;20043;-69
2022/12/20 05:58:25;;;;;;;3.08;1.58;;;;;;;10.83;88.62;101116.59;4934052;28;20573;-69
2022/12/20 06:01:01;;;;;;;3.55;1.80;;;;;;;10.90;88.45;101114.63;4915233;29;20048;-68
2022/12/20 06:03:30;;;;;;;3.63;1.75;;;;;;;10.87;87.97;101118.22;4936167;28;20131;-66
2022/12/20 06:05:59;;;;;;;3.72;1.80;;;;;;;10.82;87.95;101128.06;4920380;28;20036;-67
2022/12/20 06:08:29;;;;;;;4.05;1.85;;;;;;;10.78;88.04;101121.13;4933306;28;20114;-67
2022/12/20 06:10:57;;;;;;;6.32;2.00;;;;;;;10.75;88.21;101122.97;4940600;28;20051;-67
2022/12/20 06:13:25;;;;;;;3.33;1.90;;;;;;;10.71;88.29;101120.41;4924579;28;20123;-67
2022/12/20 06:15:53;;;;;;;2.35;1.90;;;;;;;10.66;88.25;101109.13;4945900;28;20055;-67
2022/12/20 06:18:21;;;;;;;3.50;1.65;;;;;;;10.63;88.23;101103.06;4940582;28;20797;-67
2022/12/20 06:21:01;;;;;;;3.80;1.98;;;;;;;10.61;88.09;101099.59;4936678;28;20071;-66
2022/12/20 06:23:28;;;;;;;4.78;1.90;;;;;;;10.57;88.10;101099.69;4941915;28;20048;-66
2022/12/20 06:26:08;;;;;;;4.10;1.50;;;;;;;10.52;87.84;101093.69;4944431;28;20438;-66
2022/12/20 06:28:43;;;;;;;7.13;2.05;;;;;;;10.49;87.66;101079.69;4934747;28;20036;-67
2022/12/20 06:31:19;;;;;;;3.78;1.67;;;;;;;10.46;87.40;101069.25;4933503;28;20123;-67
2022/12/20 06:33:51;;;;;;;3.83;1.95;;;;;;;10.40;87.51;101063.22;4935498;28;20065;-67
2022/12/20 06:36:20;;;;;;;2.65;1.63;;;;;;;10.38;87.27;101070.28;4946305;28;20055;-67
2022/12/20 06:38:47;;;;;;;4.85;1.90;;;;;;;10.36;87.37;101065.94;4945007;28;20063;-66
2022/12/20 06:41:14;;;;;;;3.67;2.05;;;;;;;10.34;87.33;101068.63;4935344;28;20069;-67
2022/12/20 06:43:46;;;;;;;4.00;1.80;;;;;;;10.33;87.08;101077.44;4942415;28;20103;-66
2022/12/20 06:46:13;;;;;;;5.28;2.20;;;;;;;10.34;87.07;101080.91;4959864;28;20533;-67
2022/12/20 06:48:40;;;;;;;4.13;1.75;;;;;;;10.35;87.05;101069.47;4951846;28;20107;-67
2022/12/20 06:51:09;;;;;;;4.15;1.90;;;;;;;10.34;86.87;101065.09;4964939;28;20536;-66
2022/12/20 06:53:37;;;;;;;3.35;1.80;;;;;;;10.34;86.60;101067.72;4932075;28;20510;-66
2022/12/20 06:56:05;;;;;;;4.38;1.85;;;;;;;10.32;86.72;101062.53;4934007;28;20052;-66
2022/12/20 06:58:32;;;;;;;4.95;1.83;;;;;;;10.31;86.36;101078.38;4935833;28;20521;-66
2022/12/20 07:00:59;;;;;;;3.28;1.80;;;;;;;10.28;86.45;101075.81;4937345;28;20041;-67
2022/12/20 07:03:26;;;;;;;3.35;1.80;;;;;;;10.25;86.48;101071.50;4935056;28;20538;-66
2022/12/20 07:05:56;;;;;;;4.03;1.70;;;;;;;10.25;86.70;101060.94;4934370;28;20043;-66
2022/12/20 07:08:24;;;;;;;3.85;1.70;;;;;;;10.23;86.45;101068.03;4918487;29;20490;-66
2022/12/20 07:10:53;;;;;;;2.42;1.65;;;;;;;10.18;86.46;101067.25;4934540;29;20040;-66
2022/12/20 07:13:20;;;;;;;3.72;1.70;;;;;;;10.16;86.35;101074.34;4933028;28;20733;-66
2022/12/20 07:15:47;;;;;;;4.68;1.90;;;;;;;10.13;86.51;101064.75;4934154;29;20056;-66
2022/12/20 07:18:14;;;;;;;5.07;1.77;;;;;;;10.12;86.40;101070.06;4934759;29;20044;-66
2022/12/20 07:20:41;;;;;;;3.83;1.92;;;;;;;10.12;86.35;101068.31;4934301;29;20506;-66
2022/12/20 07:23:08;;;;;;;3.33;1.77;;;;;;;10.12;86.08;101073.56;4934593;29;20052;-66
2022/12/20 07:25:35;;;;;;;5.72;2.05;;;;;;;10.12;86.25;101067.44;4934719;29;20048;-66
2022/12/20 07:28:03;;;;;;;2.58;1.60;;;;;;;10.09;86.20;101074.50;4934281;29;20060;-66
2022/12/20 07:30:30;;;;;;;4.72;2.10;;;;;;;10.08;86.22;101071.91;4933976;29;20044;-66
2022/12/20 07:32:57;;;;;;;5.65;1.73;;;;;;;10.09;86.00;101060.47;4934126;29;20047;-66
2022/12/20 07:35:25;;;;;;;5.05;1.90;;;;;;;10.10;86.13;101064.84;4934493;29;20044;-66
2022/12/20 07:37:52;;;;;;;3.50;1.70;;;;;;;10.12;85.93;101064.78;4934337;29;20044;-66
2022/12/20 07:40:19;;;;;;;3.80;1.98;;;;;;;10.12;86.00;101078.84;4934281;28;20055;-66
2022/12/20 07:42:46;;;;;;;4.95;1.95;;;;;;;10.13;86.09;101075.28;4933899;29;20059;-66
2022/12/20 07:45:15;;;;;;;4.80;2.00;;;;;;;10.14;85.63;101070.88;4932506;29;20052;-66
2022/12/20 07:47:42;;;;;;;4.90;1.90;;;;;;;10.14;85.81;101071.75;4933510;29;20466;-67
2022/12/20 07:50:10;;;;;;;2.70;1.52;;;;;;;10.16;85.80;101071.72;4932405;28;20036;-67
2022/12/20 07:52:43;;;;;;;4.72;1.77;;;;;;;10.20;85.70;101070.72;4934032;29;20088;-66
2022/12/20 07:55:12;;;;;;;3.55;1.70;;;;;;;10.21;85.90;101077.72;4933463;29;20036;-67
2022/12/20 07:58:10;;;;;;;6.25;1.83;;;;;;;10.27;85.58;101074.97;4933608;29;20080;-66
2022/12/20 08:00:37;;;;;;;3.00;1.70;;;;;;;10.30;85.44;101061.69;4914883;29;20060;-67
2022/12/20 08:03:22;;;;;;;4.03;2.53;;;;;;;10.34;85.01;101071.25;4933668;29;20127;-67
2022/12/20 08:05:55;;;;;;;;;;;;;;;10.35;85.02;101080.00;4915618;29;20495;-67
2022/12/20 08:08:23;;;;;;;5.28;1.90;;;;;;;10.39;85.14;101073.81;4927634;29;19926;-66
2022/12/20 08:10:51;;;;;;;3.55;2.13;;;;;;;10.43;84.96;101078.06;4917976;29;20055;-67
2022/12/20 08:13:18;;;;;;;4.47;2.83;;;;;;;10.46;84.58;101075.38;4922962;29;20124;-66
2022/12/20 08:15:45;;;;;;;3.85;1.83;;;;;;;10.49;84.67;101069.13;4932006;29;20071;-66
2022/12/20 08:18:12;;;;;;;4.43;2.00;;;;;;;10.52;84.76;101077.88;4932172;28;20044;-67
2022/12/20 08:20:40;;;;;;;2.25;1.40;;;;;;;10.57;84.52;101086.50;4933665;29;20078;-66
2022/12/20 08:23:07;;;;;;;6.18;2.60;;;;;;;10.62;84.39;101083.75;4933511;29;20487;-66
2022/12/20 08:25:34;;;;;;;5.00;1.50;;;;;;;10.65;84.22;101090.69;4933053;29;20488;-67
2022/12/20 08:28:08;;;;;;;5.18;1.90;;;;;;;10.70;84.33;101088.81;4932286;28;20044;-67
2022/12/20 08:30:36;;;;;;;5.40;1.90;;;;;;;10.74;84.23;101085.16;4933434;29;20047;-67
2022/12/20 08:33:04;;;;;;;6.63;1.70;;;;;;;10.79;84.25;101080.66;4932846;29;20051;-67
2022/12/20 08:35:32;;;;;;;6.47;1.60;;;;;;;10.84;84.14;101088.44;4931947;29;20524;-67
2022/12/20 08:38:00;;;;;;;5.47;1.70;;;;;;;10.86;84.01;101082.19;4932067;28;20044;-68
2022/12/20 08:40:29;;;;;;;4.20;1.50;;;;;;;10.91;83.86;101078.59;4928291;29;20043;-67
2022/12/20 08:42:57;;;;;;;1.77;1.20;;;;;;;10.94;83.83;101089.91;4931939;29;20569;-67
2022/12/20 08:45:28;;;;;;;3.30;1.40;;;;;;;10.98;83.60;101082.78;4933164;29;20044;-67
2022/12/20 08:47:55;;;;;;;3.45;1.50;;;;;;;10.99;83.97;101087.16;4933182;28;20131;-67
2022/12/20 08:50:22;;;;;;;40.53;26.05;;;;;;;10.99;84.12;101088.00;4933183;29;20040;-67
2022/12/20 08:52:49;;;;;;;4.75;3.90;;;;;;;10.99;84.16;101085.34;4932188;29;20051;-67
2022/12/20 08:55:16;;;;;;;7.13;5.90;;;;;;;10.97;84.22;101089.84;4933187;29;20043;-67
2022/12/20 08:57:43;;;;;;;30.17;25.08;;;;;;;10.95;84.56;101082.84;4932369;28;20123;-67
2022/12/20 09:00:11;;;;;;;6.18;3.60;;;;;;;10.92;84.90;101083.81;4932673;29;20052;-67
2022/12/20 09:02:40;;;;;;;6.32;4.55;;;;;;;10.89;85.07;101081.25;4932995;29;20046;-67
2022/12/20 09:05:07;;;;;;;13.68;9.68;;;;;;;10.84;85.10;101081.38;4933072;29;20071;-67
2022/12/20 09:07:35;;;;;;;16.70;11.35;;;;;;;10.79;85.41;101082.41;4931730;28;20395;-67
2022/12/20 09:10:02;;;;;;;32.00;18.65;;;;;;;10.75;85.63;101086.06;4932629;29;20044;-66
2022/12/20 09:12:29;;;;;;;39.08;25.10;;;;;;;10.71;85.90;101080.00;4935854;29;20051;-67
2022/12/20 09:14:56;;;;;;;34.55;24.02;;;;;;;10.67;85.59;101086.25;4935267;29;20067;-67
2022/12/20 09:17:23;;;;;;;24.50;15.73;;;;;;;10.62;86.16;101083.75;4934261;29;20048;-68
2022/12/20 09:19:50;;;;;;;113.22;51.53;;;;;;;10.56;86.53;101078.63;4935981;29;20047;-68
2022/12/20 09:22:17;;;;;;;218.85;86.82;;;;;;;10.49;86.80;101075.28;4935779;29;20048;-67
2022/12/20 09:24:44;;;;;;;115.22;67.30;;;;;;;10.47;87.17;101081.53;4935898;29;20052;-68
2022/12/20 09:27:11;;;;;;;105.45;61.35;;;;;;;10.45;87.60;101075.41;4934905;29;20047;-69
2022/12/20 09:29:38;;;;;;;50.15;35.97;;;;;;;10.46;87.79;101071.88;4935911;29;20052;-68
2022/12/20 09:32:06;;;;;;;119.50;89.28;;;;;;;10.50;87.97;101071.75;4935427;29;20112;-67
2022/12/20 09:34:33;;;;;;;32.40;26.13;;;;;;;10.54;88.36;101068.13;4935745;29;20048;-67
2022/12/20 09:37:00;;;;;;;16.30;8.85;;;;;;;10.60;88.58;101066.25;4925457;29;20051;-67
2022/12/20 09:39:27;;;;;;;15.98;11.68;;;;;;;10.63;88.69;101060.91;4934854;29;20131;-68
2022/12/20 09:41:54;;;;;;;26.48;18.67;;;;;;;10.63;88.81;101059.09;4935848;29;20048;-67
2022/12/20 09:44:30;;;;;;;17.85;11.75;;;;;;;10.64;88.91;101059.97;4935319;29;20056;-67
2022/12/20 09:47:11;;;;;;;20.73;17.30;;;;;;;10.64;88.94;101057.31;4935045;29;20044;-66
2022/12/20 09:49:46;;;;;;;22.27;19.40;;;;;;;10.63;89.14;101066.16;4921229;29;20048;-66
2022/12/20 09:53:00;;;;;;;17.90;15.55;;;;;;;10.67;89.20;101070.44;4935268;29;20072;-67
2022/12/20 09:55:40;;;;;;;9.00;7.35;;;;;;;10.71;89.37;101066.81;4935449;29;20633;-66
2022/12/20 09:58:49;;;;;;;14.32;10.45;;;;;;;10.79;89.27;101050.75;4928084;29;20074;-67
2022/12/20 10:01:23;;;;;;;29.70;22.60;;;;;;;10.90;89.17;101053.13;4935177;29;20044;-67
2022/12/20 10:03:55;;;;;;;13.65;10.68;;;;;;;10.98;89.09;101059.03;4934904;29;20497;-67
2022/12/20 10:06:48;;;;;;;16.98;12.57;;;;;;;11.08;88.80;101049.09;4934215;29;20048;-67
2022/12/20 10:09:39;;;;;;;12.98;9.82;;;;;;;11.13;88.65;101055.09;4924849;29;20044;-67
2022/12/20 10:12:31;;;;;;;8.95;6.35;;;;;;;11.17;88.34;101054.09;4935402;29;20123;-67
2022/12/20 10:15:24;;;;;;;8.55;5.72;;;;;;;11.22;88.38;101038.97;4934756;29;20056;-67
2022/12/20 10:18:37;;;;;;;9.23;6.15;;;;;;;11.27;88.14;101037.09;4934862;29;20514;-67
2022/12/20 10:21:42;;;;;;;6.15;5.45;;;;;;;11.33;88.00;101033.41;4935546;29;20040;-68
2022/12/20 10:24:23;;;;;;;3.72;2.20;;;;;;;11.33;87.93;101031.59;4935259;29;20052;-67
2022/12/20 10:26:50;;;;;;;3.92;2.15;;;;;;;11.33;87.85;101031.59;4931503;29;20040;-67
2022/12/20 10:29:19;;;;;;;7.93;5.35;;;;;;;11.36;87.68;101024.50;4935159;29;20064;-67
2022/12/20 10:31:57;;;;;;;5.50;3.42;;;;;;;11.38;87.32;101023.53;4935007;29;20047;-67
2022/12/20 10:34:25;;;;;;;5.82;2.83;;;;;;;11.38;87.06;101031.47;4935244;29;20052;-67
2022/12/20 10:37:14;;;;;;;;;;;;;;;11.34;87.29;101028.06;4927144;29;20116;-67
2022/12/20 10:39:47;;;;;;;7.32;5.28;;;;;;;11.34;87.37;101027.22;4916136;29;19933;-67
2022/12/20 10:42:38;;;;;;;6.05;3.30;;;;;;;11.35;87.46;101018.34;4916215;29;20041;-67
2022/12/20 10:45:14;;;;;;;6.65;3.03;;;;;;;11.38;87.13;101018.25;4916674;29;20049;-68
2022/12/20 10:47:45;;;;;;;3.70;2.40;;;;;;;11.39;87.15;101012.09;4934031;29;20036;-67
2022/12/20 10:50:21;;;;;;;3.03;1.60;;;;;;;11.47;87.15;101004.78;4934898;29;20414;-67
2022/12/20 10:53:06;;;;;;;4.45;1.83;;;;;;;11.59;87.06;101006.19;4934747;28;20040;-67
2022/12/20 10:55:41;;;;;;;6.32;2.05;;;;;;;11.69;86.86;101008.53;4935011;29;20044;-67
2022/12/20 10:58:20;;;;;;;6.63;1.75;;;;;;;11.76;86.50;101012.69;4934239;29;20100;-68
2022/12/20 11:00:48;;;;;;;3.03;1.90;;;;;;;11.83;86.31;101002.78;4935194;29;20044;-67
2022/12/20 11:03:19;;;;;;;2.63;1.85;;;;;;;11.85;86.37;101009.75;4934976;29;20078;-67
2022/12/20 11:06:03;;;;;;;5.68;2.00;;;;;;;11.91;85.87;101012.16;4935059;29;20043;-67
2022/12/20 11:08:32;;;;;;;242.20;87.55;;;;;;;11.85;86.09;101012.38;4934753;29;20048;-68
2022/12/20 11:11:18;;;;;;;31.15;20.42;;;;;;;11.83;86.00;101013.34;4934643;29;20123;-68
2022/12/20 11:13:50;;;;;;;14.02;9.20;;;;;;;11.76;86.22;101012.69;4933896;29;20108;-68
2022/12/20 11:16:28;;;;;;;12.35;9.65;;;;;;;11.68;86.53;101005.00;4928689;28;20044;-66
2022/12/20 11:19:26;;;;;;;7.13;4.57;;;;;;;11.58;86.57;101004.47;4933069;29;20443;-67
2022/12/20 11:22:09;;;;;;;5.63;3.00;;;;;;;11.48;87.27;101003.03;4934228;29;20053;-67
2022/12/20 11:25:22;;;;;;;5.45;2.30;;;;;;;11.42;87.63;101008.47;4933780;29;20474;-67
2022/12/20 11:28:43;;;;;;;5.82;4.22;;;;;;;11.36;88.03;101008.69;4851613;29;20061;-67
2022/12/20 11:31:34;;;;;;;5.95;3.20;;;;;;;11.28;88.40;101001.88;4856601;29;20048;-67
2022/12/20 11:34:47;;;;;;;11.15;9.68;;;;;;;11.24;88.82;101002.84;4919440;29;20491;-67
2022/12/20 11:37:23;;;;;;;12.63;10.50;;;;;;;11.21;89.01;101000.31;4933649;28;20044;-68
2022/12/20 11:40:10;;;;;;;9.48;6.00;;;;;;;11.24;89.25;100991.44;4933616;29;20969;-67
2022/12/20 11:42:50;;;;;;;13.07;11.07;;;;;;;11.25;89.43;100999.31;4932051;28;20046;-67
2022/12/20 11:45:38;;;;;;;17.40;13.57;;;;;;;11.26;89.73;100995.75;4933313;29;20096;-68
2022/12/20 11:48:35;;;;;;;13.73;10.73;;;;;;;11.30;89.78;100988.63;4949204;28;20127;-67
2022/12/20 11:51:17;;;;;;;3.55;2.05;;;;;;;11.31;90.04;100987.69;4952943;28;20042;-66
2022/12/20 11:54:29;;;;;;;7.70;2.55;;;;;;;11.36;90.12;100982.28;4948995;28;20773;-66
2022/12/20 11:57:15;;;;;;;3.70;2.30;;;;;;;11.37;90.24;100986.66;4932547;28;20506;-67
2022/12/20 11:59:55;;;;;;;5.07;2.42;;;;;;;11.35;90.33;100981.41;4933864;29;20852;-67
2022/12/20 12:02:42;;;;;;;5.80;2.60;;;;;;;11.36;90.45;100977.84;4933629;29;20044;-66
2022/12/20 12:05:43;;;;;;;5.15;3.20;;;;;;;11.36;90.51;100974.38;4948282;28;20052;-67